sensor_id;sensor_type;location;lat;lon;timestamp;P1;durP1;ratioP1;P2;durP2;ratioP2
62056;SDS011;48016;50.284;18.860;2023-04-25T00:01:48;13.20;;;9.10;;
62056;SDS011;48016;50.284;18.860;2023-04-25T00:04:15;10.30;;;8.10;;
62056;SDS011;48016;50.284;18.860;2023-04-25T00:06:42;10.60;;;8.10;;
62056;SDS011;48016;50.284;18.860;2023-04-25T00:09:08;12.10;;;8.30;;
62056;SDS011;48016;50.284;18.860;2023-04-25T00:14:03;13.10;;;8.70;;
62056;SDS011;48016;50.284;18.860;2023-04-25T00:16:30;14.00;;;9.60;;
62056;SDS011;48016;50.284;18.860;2023-04-25T00:19:00;15.60;;;10.10;;
62056;SDS011;48016;50.284;18.860;2023-04-25T00:21:29;15.40;;;9.60;;
62056;SDS011;48016;50.284;18.860;2023-04-25T00:23:57;14.60;;;10.60;;
62056;SDS011;48016;50.284;18.860;2023-04-25T00:26:24;13.60;;;9.60;;
62056;SDS011;48016;50.284;18.860;2023-04-25T00:28:51;17.10;;;10.80;;
62056;SDS011;48016;50.284;18.860;2023-04-25T00:31:18;16.00;;;10.60;;
62056;SDS011;48016;50.284;18.860;2023-04-25T00:33:44;16.40;;;9.80;;
62056;SDS011;48016;50.284;18.860;2023-04-25T00:36:11;14.10;;;9.40;;
62056;SDS011;48016;50.284;18.860;2023-04-25T00:38:37;12.70;;;9.00;;
62056;SDS011;48016;50.284;18.860;2023-04-25T00:41:05;12.60;;;9.10;;
62056;SDS011;48016;50.284;18.860;2023-04-25T00:43:33;13.10;;;9.00;;
62056;SDS011;48016;50.284;18.860;2023-04-25T00:46:00;13.90;;;8.90;;
62056;SDS011;48016;50.284;18.860;2023-04-25T00:48:27;11.60;;;8.40;;
62056;SDS011;48016;50.284;18.860;2023-04-25T00:50:54;13.20;;;8.40;;
62056;SDS011;48016;50.284;18.860;2023-04-25T00:53:24;13.30;;;8.10;;
62056;SDS011;48016;50.284;18.860;2023-04-25T00:55:52;12.20;;;8.40;;
62056;SDS011;48016;50.284;18.860;2023-04-25T00:58:20;11.70;;;8.00;;
62056;SDS011;48016;50.284;18.860;2023-04-25T01:00:49;11.80;;;7.60;;
62056;SDS011;48016;50.284;18.860;2023-04-25T01:03:16;10.20;;;7.50;;
62056;SDS011;48016;50.284;18.860;2023-04-25T01:05:46;9.30;;;6.60;;
62056;SDS011;48016;50.284;18.860;2023-04-25T01:08:14;10.30;;;6.90;;
62056;SDS011;48016;50.284;18.860;2023-04-25T01:10:40;12.50;;;7.30;;
62056;SDS011;48016;50.284;18.860;2023-04-25T01:13:07;11.70;;;7.00;;
62056;SDS011;48016;50.284;18.860;2023-04-25T01:15:34;10.90;;;7.00;;
62056;SDS011;48016;50.284;18.860;2023-04-25T01:18:02;9.70;;;6.70;;
62056;SDS011;48016;50.284;18.860;2023-04-25T01:20:32;8.70;;;6.20;;
62056;SDS011;48016;50.284;18.860;2023-04-25T01:23:00;9.30;;;6.10;;
62056;SDS011;48016;50.284;18.860;2023-04-25T01:25:28;9.00;;;6.20;;
62056;SDS011;48016;50.284;18.860;2023-04-25T01:27:56;9.20;;;6.60;;
62056;SDS011;48016;50.284;18.860;2023-04-25T01:30:25;7.80;;;6.00;;
62056;SDS011;48016;50.284;18.860;2023-04-25T01:32:56;8.20;;;6.30;;
62056;SDS011;48016;50.284;18.860;2023-04-25T01:35:23;9.20;;;6.40;;
62056;SDS011;48016;50.284;18.860;2023-04-25T01:40:17;8.60;;;5.30;;
62056;SDS011;48016;50.284;18.860;2023-04-25T01:42:45;7.00;;;5.20;;
62056;SDS011;48016;50.284;18.860;2023-04-25T01:45:12;6.60;;;4.80;;
62056;SDS011;48016;50.284;18.860;2023-04-25T01:47:39;6.20;;;4.70;;
62056;SDS011;48016;50.284;18.860;2023-04-25T01:50:06;6.00;;;4.80;;
62056;SDS011;48016;50.284;18.860;2023-04-25T01:52:34;5.50;;;4.40;;
62056;SDS011;48016;50.284;18.860;2023-04-25T01:55:01;6.00;;;4.30;;
62056;SDS011;48016;50.284;18.860;2023-04-25T01:57:28;7.40;;;4.60;;
62056;SDS011;48016;50.284;18.860;2023-04-25T01:59:58;7.40;;;4.80;;
62056;SDS011;48016;50.284;18.860;2023-04-25T02:02:27;7.70;;;4.70;;
62056;SDS011;48016;50.284;18.860;2023-04-25T02:04:53;6.50;;;4.30;;
62056;SDS011;48016;50.284;18.860;2023-04-25T02:07:20;8.50;;;4.40;;
62056;SDS011;48016;50.284;18.860;2023-04-25T02:09:47;6.70;;;4.50;;
62056;SDS011;48016;50.284;18.860;2023-04-25T02:12:13;6.00;;;4.60;;
62056;SDS011;48016;50.284;18.860;2023-04-25T02:14:40;8.10;;;5.20;;
62056;SDS011;48016;50.284;18.860;2023-04-25T02:17:07;8.30;;;5.00;;
62056;SDS011;48016;50.284;18.860;2023-04-25T02:19:33;6.20;;;4.60;;
62056;SDS011;48016;50.284;18.860;2023-04-25T02:22:00;6.70;;;4.90;;
62056;SDS011;48016;50.284;18.860;2023-04-25T02:24:27;9.80;;;5.10;;
62056;SDS011;48016;50.284;18.860;2023-04-25T02:26:54;8.30;;;5.50;;
62056;SDS011;48016;50.284;18.860;2023-04-25T02:29:22;7.40;;;5.00;;
62056;SDS011;48016;50.284;18.860;2023-04-25T02:31:49;6.90;;;5.20;;
62056;SDS011;48016;50.284;18.860;2023-04-25T02:34:15;8.50;;;5.00;;
62056;SDS011;48016;50.284;18.860;2023-04-25T02:36:42;8.30;;;5.20;;
62056;SDS011;48016;50.284;18.860;2023-04-25T02:39:09;7.60;;;5.10;;
62056;SDS011;48016;50.284;18.860;2023-04-25T02:44:03;7.40;;;4.80;;
62056;SDS011;48016;50.284;18.860;2023-04-25T02:46:29;6.80;;;4.90;;
62056;SDS011;48016;50.284;18.860;2023-04-25T02:48:56;6.50;;;4.70;;
62056;SDS011;48016;50.284;18.860;2023-04-25T02:51:23;6.20;;;4.70;;
62056;SDS011;48016;50.284;18.860;2023-04-25T02:53:49;6.70;;;4.30;;
62056;SDS011;48016;50.284;18.860;2023-04-25T02:56:16;7.90;;;4.80;;
62056;SDS011;48016;50.284;18.860;2023-04-25T02:58:42;6.90;;;4.80;;
62056;SDS011;48016;50.284;18.860;2023-04-25T03:01:09;7.10;;;4.50;;
62056;SDS011;48016;50.284;18.860;2023-04-25T03:03:36;6.90;;;4.30;;
62056;SDS011;48016;50.284;18.860;2023-04-25T03:06:02;6.00;;;4.20;;
62056;SDS011;48016;50.284;18.860;2023-04-25T03:08:29;6.90;;;4.50;;
62056;SDS011;48016;50.284;18.860;2023-04-25T03:10:58;4.80;;;3.90;;
62056;SDS011;48016;50.284;18.860;2023-04-25T03:13:25;6.10;;;3.90;;
62056;SDS011;48016;50.284;18.860;2023-04-25T03:15:52;5.40;;;4.30;;
62056;SDS011;48016;50.284;18.860;2023-04-25T03:18:18;6.70;;;4.80;;
62056;SDS011;48016;50.284;18.860;2023-04-25T03:20:45;6.90;;;3.90;;
62056;SDS011;48016;50.284;18.860;2023-04-25T03:23:12;5.60;;;4.50;;
62056;SDS011;48016;50.284;18.860;2023-04-25T03:25:39;5.40;;;3.90;;
62056;SDS011;48016;50.284;18.860;2023-04-25T03:28:06;5.80;;;4.20;;
62056;SDS011;48016;50.284;18.860;2023-04-25T03:30:33;9.30;;;4.10;;
62056;SDS011;48016;50.284;18.860;2023-04-25T03:32:59;6.40;;;4.30;;
62056;SDS011;48016;50.284;18.860;2023-04-25T03:35:26;6.80;;;3.90;;
62056;SDS011;48016;50.284;18.860;2023-04-25T03:37:53;7.20;;;3.60;;
62056;SDS011;48016;50.284;18.860;2023-04-25T03:40:19;5.60;;;3.70;;
62056;SDS011;48016;50.284;18.860;2023-04-25T03:42:46;6.80;;;3.80;;
62056;SDS011;48016;50.284;18.860;2023-04-25T03:45:12;4.90;;;3.80;;
62056;SDS011;48016;50.284;18.860;2023-04-25T03:47:39;5.00;;;3.60;;
62056;SDS011;48016;50.284;18.860;2023-04-25T03:50:05;6.40;;;3.50;;
62056;SDS011;48016;50.284;18.860;2023-04-25T03:52:32;5.80;;;3.70;;
62056;SDS011;48016;50.284;18.860;2023-04-25T03:54:59;6.00;;;4.00;;
62056;SDS011;48016;50.284;18.860;2023-04-25T03:57:25;6.60;;;3.80;;
62056;SDS011;48016;50.284;18.860;2023-04-25T03:59:52;4.50;;;3.40;;
62056;SDS011;48016;50.284;18.860;2023-04-25T04:02:19;5.70;;;3.80;;
62056;SDS011;48016;50.284;18.860;2023-04-25T04:04:45;6.20;;;3.60;;
62056;SDS011;48016;50.284;18.860;2023-04-25T04:07:12;4.80;;;3.60;;
62056;SDS011;48016;50.284;18.860;2023-04-25T04:22:39;4.10;;;3.60;;
62056;SDS011;48016;50.284;18.860;2023-04-25T04:25:05;4.10;;;3.40;;
62056;SDS011;48016;50.284;18.860;2023-04-25T04:27:32;7.30;;;4.00;;
62056;SDS011;48016;50.284;18.860;2023-04-25T04:29:59;5.60;;;3.50;;
62056;SDS011;48016;50.284;18.860;2023-04-25T04:32:26;5.70;;;3.30;;
62056;SDS011;48016;50.284;18.860;2023-04-25T04:34:56;4.90;;;3.30;;
62056;SDS011;48016;50.284;18.860;2023-04-25T04:37:23;6.30;;;3.50;;
62056;SDS011;48016;50.284;18.860;2023-04-25T04:39:50;4.40;;;3.30;;
62056;SDS011;48016;50.284;18.860;2023-04-25T04:42:18;4.70;;;3.20;;
62056;SDS011;48016;50.284;18.860;2023-04-25T04:44:44;4.80;;;3.40;;
62056;SDS011;48016;50.284;18.860;2023-04-25T04:53:07;5.10;;;3.50;;
62056;SDS011;48016;50.284;18.860;2023-04-25T04:55:33;4.70;;;3.50;;
62056;SDS011;48016;50.284;18.860;2023-04-25T04:58:00;4.90;;;3.50;;
62056;SDS011;48016;50.284;18.860;2023-04-25T05:00:27;5.90;;;4.20;;
62056;SDS011;48016;50.284;18.860;2023-04-25T05:02:55;7.20;;;4.40;;
62056;SDS011;48016;50.284;18.860;2023-04-25T05:05:22;5.90;;;4.40;;
62056;SDS011;48016;50.284;18.860;2023-04-25T05:07:49;7.00;;;4.60;;
62056;SDS011;48016;50.284;18.860;2023-04-25T05:10:16;8.70;;;4.20;;
62056;SDS011;48016;50.284;18.860;2023-04-25T05:12:44;5.90;;;4.20;;
62056;SDS011;48016;50.284;18.860;2023-04-25T05:15:11;6.40;;;4.30;;
62056;SDS011;48016;50.284;18.860;2023-04-25T05:17:38;5.70;;;4.20;;
62056;SDS011;48016;50.284;18.860;2023-04-25T05:20:08;5.70;;;4.20;;
62056;SDS011;48016;50.284;18.860;2023-04-25T05:22:35;6.10;;;3.60;;
62056;SDS011;48016;50.284;18.860;2023-04-25T05:25:02;6.80;;;4.50;;
62056;SDS011;48016;50.284;18.860;2023-04-25T05:29:56;7.30;;;4.40;;
62056;SDS011;48016;50.284;18.860;2023-04-25T05:32:23;6.60;;;4.80;;
62056;SDS011;48016;50.284;18.860;2023-04-25T05:34:51;8.20;;;4.90;;
62056;SDS011;48016;50.284;18.860;2023-04-25T05:37:18;7.30;;;4.60;;
62056;SDS011;48016;50.284;18.860;2023-04-25T05:39:44;7.20;;;4.60;;
62056;SDS011;48016;50.284;18.860;2023-04-25T05:42:11;5.90;;;4.40;;
62056;SDS011;48016;50.284;18.860;2023-04-25T05:44:38;5.20;;;3.90;;
62056;SDS011;48016;50.284;18.860;2023-04-25T05:47:04;6.40;;;3.80;;
62056;SDS011;48016;50.284;18.860;2023-04-25T05:49:31;7.40;;;4.10;;
62056;SDS011;48016;50.284;18.860;2023-04-25T05:51:58;6.20;;;4.30;;
62056;SDS011;48016;50.284;18.860;2023-04-25T05:54:25;7.20;;;4.60;;
62056;SDS011;48016;50.284;18.860;2023-04-25T05:56:51;9.20;;;4.60;;
62056;SDS011;48016;50.284;18.860;2023-04-25T05:59:18;7.90;;;4.40;;
62056;SDS011;48016;50.284;18.860;2023-04-25T06:01:44;5.40;;;3.80;;
62056;SDS011;48016;50.284;18.860;2023-04-25T06:04:11;5.40;;;4.10;;
62056;SDS011;48016;50.284;18.860;2023-04-25T06:06:38;6.70;;;4.30;;
62056;SDS011;48016;50.284;18.860;2023-04-25T06:09:05;5.90;;;4.10;;
62056;SDS011;48016;50.284;18.860;2023-04-25T06:11:31;6.90;;;4.70;;
62056;SDS011;48016;50.284;18.860;2023-04-25T06:13:58;5.90;;;4.00;;
62056;SDS011;48016;50.284;18.860;2023-04-25T06:16:25;6.60;;;4.10;;
62056;SDS011;48016;50.284;18.860;2023-04-25T06:18:52;7.00;;;4.40;;
62056;SDS011;48016;50.284;18.860;2023-04-25T06:21:19;8.30;;;4.70;;
62056;SDS011;48016;50.284;18.860;2023-04-25T06:23:45;7.90;;;5.30;;
62056;SDS011;48016;50.284;18.860;2023-04-25T06:26:12;8.50;;;5.10;;
62056;SDS011;48016;50.284;18.860;2023-04-25T06:28:39;6.80;;;4.70;;
62056;SDS011;48016;50.284;18.860;2023-04-25T06:31:05;9.20;;;4.70;;
62056;SDS011;48016;50.284;18.860;2023-04-25T06:33:32;8.50;;;4.60;;
62056;SDS011;48016;50.284;18.860;2023-04-25T06:35:59;8.10;;;4.90;;
62056;SDS011;48016;50.284;18.860;2023-04-25T06:38:25;6.10;;;4.50;;
62056;SDS011;48016;50.284;18.860;2023-04-25T06:40:52;8.60;;;4.80;;
62056;SDS011;48016;50.284;18.860;2023-04-25T06:43:19;6.50;;;4.40;;
62056;SDS011;48016;50.284;18.860;2023-04-25T06:45:45;7.00;;;4.20;;
62056;SDS011;48016;50.284;18.860;2023-04-25T06:48:12;6.80;;;4.80;;
62056;SDS011;48016;50.284;18.860;2023-04-25T06:50:38;8.30;;;4.20;;
62056;SDS011;48016;50.284;18.860;2023-04-25T06:53:05;7.70;;;4.80;;
62056;SDS011;48016;50.284;18.860;2023-04-25T06:55:32;7.80;;;4.70;;
62056;SDS011;48016;50.284;18.860;2023-04-25T06:57:58;7.70;;;4.40;;
62056;SDS011;48016;50.284;18.860;2023-04-25T07:00:26;7.70;;;4.90;;
62056;SDS011;48016;50.284;18.860;2023-04-25T07:02:54;9.40;;;5.20;;
62056;SDS011;48016;50.284;18.860;2023-04-25T07:05:21;7.90;;;4.30;;
62056;SDS011;48016;50.284;18.860;2023-04-25T07:07:48;7.10;;;4.70;;
62056;SDS011;48016;50.284;18.860;2023-04-25T07:10:14;9.00;;;5.00;;
62056;SDS011;48016;50.284;18.860;2023-04-25T07:12:41;6.80;;;5.10;;
62056;SDS011;48016;50.284;18.860;2023-04-25T07:15:08;7.20;;;4.90;;
62056;SDS011;48016;50.284;18.860;2023-04-25T07:17:36;6.40;;;4.70;;
62056;SDS011;48016;50.284;18.860;2023-04-25T07:20:03;7.60;;;4.50;;
62056;SDS011;48016;50.284;18.860;2023-04-25T07:22:32;6.90;;;4.60;;
62056;SDS011;48016;50.284;18.860;2023-04-25T07:24:58;9.70;;;5.50;;
62056;SDS011;48016;50.284;18.860;2023-04-25T07:27:25;7.90;;;4.60;;
62056;SDS011;48016;50.284;18.860;2023-04-25T07:29:52;7.90;;;5.20;;
62056;SDS011;48016;50.284;18.860;2023-04-25T07:32:19;9.50;;;4.80;;
62056;SDS011;48016;50.284;18.860;2023-04-25T07:34:46;9.40;;;5.00;;
62056;SDS011;48016;50.284;18.860;2023-04-25T07:37:13;9.30;;;5.40;;
62056;SDS011;48016;50.284;18.860;2023-04-25T07:42:07;7.80;;;4.60;;
62056;SDS011;48016;50.284;18.860;2023-04-25T07:44:34;8.00;;;5.00;;
62056;SDS011;48016;50.284;18.860;2023-04-25T07:47:08;8.90;;;5.40;;
62056;SDS011;48016;50.284;18.860;2023-04-25T07:49:36;9.20;;;5.50;;
62056;SDS011;48016;50.284;18.860;2023-04-25T07:54:30;12.40;;;5.10;;
62056;SDS011;48016;50.284;18.860;2023-04-25T07:56:57;9.00;;;5.70;;
62056;SDS011;48016;50.284;18.860;2023-04-25T07:59:24;9.10;;;5.50;;
62056;SDS011;48016;50.284;18.860;2023-04-25T08:01:51;8.20;;;5.80;;
62056;SDS011;48016;50.284;18.860;2023-04-25T08:04:17;8.60;;;5.90;;
62056;SDS011;48016;50.284;18.860;2023-04-25T08:06:44;9.00;;;5.80;;
62056;SDS011;48016;50.284;18.860;2023-04-25T08:09:11;8.40;;;6.20;;
62056;SDS011;48016;50.284;18.860;2023-04-25T08:11:38;9.90;;;6.20;;
62056;SDS011;48016;50.284;18.860;2023-04-25T08:14:05;9.40;;;6.10;;
62056;SDS011;48016;50.284;18.860;2023-04-25T08:16:32;6.70;;;5.70;;
62056;SDS011;48016;50.284;18.860;2023-04-25T08:18:59;6.90;;;5.70;;
62056;SDS011;48016;50.284;18.860;2023-04-25T08:21:26;7.20;;;6.10;;
62056;SDS011;48016;50.284;18.860;2023-04-25T08:26:20;9.50;;;7.40;;
62056;SDS011;48016;50.284;18.860;2023-04-25T08:28:46;9.80;;;6.60;;
62056;SDS011;48016;50.284;18.860;2023-04-25T08:31:13;8.20;;;5.80;;
62056;SDS011;48016;50.284;18.860;2023-04-25T08:33:40;7.80;;;6.80;;
62056;SDS011;48016;50.284;18.860;2023-04-25T08:36:06;8.20;;;6.20;;
62056;SDS011;48016;50.284;18.860;2023-04-25T08:38:33;7.10;;;6.20;;
62056;SDS011;48016;50.284;18.860;2023-04-25T08:41:00;9.30;;;6.20;;
62056;SDS011;48016;50.284;18.860;2023-04-25T08:43:29;8.20;;;6.00;;
62056;SDS011;48016;50.284;18.860;2023-04-25T08:46:00;7.70;;;6.50;;
62056;SDS011;48016;50.284;18.860;2023-04-25T08:48:27;8.30;;;6.60;;
62056;SDS011;48016;50.284;18.860;2023-04-25T08:50:55;9.10;;;6.60;;
62056;SDS011;48016;50.284;18.860;2023-04-25T08:53:26;9.40;;;6.40;;
62056;SDS011;48016;50.284;18.860;2023-04-25T08:55:58;9.80;;;6.20;;
62056;SDS011;48016;50.284;18.860;2023-04-25T08:58:26;9.40;;;6.50;;
62056;SDS011;48016;50.284;18.860;2023-04-25T09:00:54;8.30;;;5.90;;
62056;SDS011;48016;50.284;18.860;2023-04-25T09:03:21;10.00;;;6.40;;
62056;SDS011;48016;50.284;18.860;2023-04-25T09:05:47;8.00;;;5.60;;
62056;SDS011;48016;50.284;18.860;2023-04-25T09:08:16;9.00;;;5.70;;
62056;SDS011;48016;50.284;18.860;2023-04-25T09:10:43;7.70;;;6.20;;
62056;SDS011;48016;50.284;18.860;2023-04-25T09:13:13;6.70;;;5.90;;
62056;SDS011;48016;50.284;18.860;2023-04-25T09:15:59;13.30;;;6.00;;
62056;SDS011;48016;50.284;18.860;2023-04-25T09:21:06;8.60;;;5.80;;
62056;SDS011;48016;50.284;18.860;2023-04-25T09:23:44;8.50;;;5.80;;
62056;SDS011;48016;50.284;18.860;2023-04-25T09:26:14;8.00;;;5.60;;
62056;SDS011;48016;50.284;18.860;2023-04-25T09:28:43;6.30;;;5.30;;
62056;SDS011;48016;50.284;18.860;2023-04-25T09:31:10;7.40;;;5.50;;
62056;SDS011;48016;50.284;18.860;2023-04-25T09:33:40;7.40;;;5.30;;
62056;SDS011;48016;50.284;18.860;2023-04-25T09:38:40;5.30;;;4.50;;
62056;SDS011;48016;50.284;18.860;2023-04-25T09:41:09;5.70;;;4.10;;
62056;SDS011;48016;50.284;18.860;2023-04-25T09:43:37;6.00;;;3.60;;
62056;SDS011;48016;50.284;18.860;2023-04-25T09:46:08;6.50;;;4.20;;
62056;SDS011;48016;50.284;18.860;2023-04-25T09:48:37;5.50;;;4.10;;
62056;SDS011;48016;50.284;18.860;2023-04-25T09:51:07;7.00;;;3.70;;
62056;SDS011;48016;50.284;18.860;2023-04-25T09:53:35;6.80;;;4.30;;
62056;SDS011;48016;50.284;18.860;2023-04-25T09:56:04;6.00;;;4.30;;
62056;SDS011;48016;50.284;18.860;2023-04-25T09:58:33;9.60;;;4.40;;
62056;SDS011;48016;50.284;18.860;2023-04-25T10:01:05;6.50;;;4.10;;
62056;SDS011;48016;50.284;18.860;2023-04-25T10:03:34;5.50;;;3.70;;
62056;SDS011;48016;50.284;18.860;2023-04-25T10:06:03;5.30;;;4.30;;
62056;SDS011;48016;50.284;18.860;2023-04-25T10:08:34;6.90;;;4.40;;
62056;SDS011;48016;50.284;18.860;2023-04-25T10:11:03;7.60;;;4.60;;
62056;SDS011;48016;50.284;18.860;2023-04-25T10:13:32;5.30;;;4.00;;
62056;SDS011;48016;50.284;18.860;2023-04-25T10:16:00;8.00;;;4.00;;
62056;SDS011;48016;50.284;18.860;2023-04-25T10:18:29;5.90;;;4.50;;
62056;SDS011;48016;50.284;18.860;2023-04-25T10:20:58;7.00;;;4.70;;
62056;SDS011;48016;50.284;18.860;2023-04-25T10:23:27;6.20;;;4.70;;
62056;SDS011;48016;50.284;18.860;2023-04-25T10:25:56;8.70;;;4.90;;
62056;SDS011;48016;50.284;18.860;2023-04-25T10:28:23;5.70;;;4.60;;
62056;SDS011;48016;50.284;18.860;2023-04-25T10:33:29;7.40;;;4.50;;
62056;SDS011;48016;50.284;18.860;2023-04-25T10:36:19;6.50;;;5.00;;
62056;SDS011;48016;50.284;18.860;2023-04-25T10:38:50;7.10;;;4.00;;
62056;SDS011;48016;50.284;18.860;2023-04-25T10:41:18;5.40;;;4.00;;
62056;SDS011;48016;50.284;18.860;2023-04-25T10:43:46;4.40;;;3.50;;
62056;SDS011;48016;50.284;18.860;2023-04-25T10:48:47;4.50;;;4.00;;
62056;SDS011;48016;50.284;18.860;2023-04-25T10:53:59;5.10;;;3.70;;
62056;SDS011;48016;50.284;18.860;2023-04-25T10:56:33;7.00;;;3.70;;
62056;SDS011;48016;50.284;18.860;2023-04-25T10:59:10;4.60;;;3.30;;
62056;SDS011;48016;50.284;18.860;2023-04-25T11:01:41;4.60;;;3.20;;
62056;SDS011;48016;50.284;18.860;2023-04-25T11:09:33;6.10;;;3.60;;
62056;SDS011;48016;50.284;18.860;2023-04-25T11:12:01;6.40;;;3.70;;
62056;SDS011;48016;50.284;18.860;2023-04-25T11:14:27;6.70;;;3.60;;
62056;SDS011;48016;50.284;18.860;2023-04-25T11:16:54;5.10;;;3.30;;
62056;SDS011;48016;50.284;18.860;2023-04-25T11:19:25;5.20;;;3.70;;
62056;SDS011;48016;50.284;18.860;2023-04-25T11:24:29;6.60;;;3.90;;
62056;SDS011;48016;50.284;18.860;2023-04-25T11:26:58;5.10;;;3.60;;
62056;SDS011;48016;50.284;18.860;2023-04-25T11:29:29;5.30;;;3.60;;
62056;SDS011;48016;50.284;18.860;2023-04-25T11:31:56;5.60;;;3.60;;
62056;SDS011;48016;50.284;18.860;2023-04-25T11:34:30;5.40;;;3.70;;
62056;SDS011;48016;50.284;18.860;2023-04-25T11:36:59;6.50;;;4.00;;
62056;SDS011;48016;50.284;18.860;2023-04-25T11:39:28;4.90;;;3.70;;
62056;SDS011;48016;50.284;18.860;2023-04-25T11:41:55;6.10;;;3.60;;
62056;SDS011;48016;50.284;18.860;2023-04-25T11:44:22;5.30;;;4.10;;
62056;SDS011;48016;50.284;18.860;2023-04-25T11:46:49;7.00;;;4.40;;
62056;SDS011;48016;50.284;18.860;2023-04-25T11:49:16;7.10;;;4.50;;
62056;SDS011;48016;50.284;18.860;2023-04-25T11:51:45;8.50;;;5.00;;
62056;SDS011;48016;50.284;18.860;2023-04-25T11:54:13;7.80;;;4.30;;
62056;SDS011;48016;50.284;18.860;2023-04-25T11:56:42;7.10;;;4.30;;
62056;SDS011;48016;50.284;18.860;2023-04-25T11:59:12;5.60;;;4.50;;
62056;SDS011;48016;50.284;18.860;2023-04-25T12:01:40;6.30;;;4.60;;
62056;SDS011;48016;50.284;18.860;2023-04-25T12:04:23;8.30;;;4.50;;
62056;SDS011;48016;50.284;18.860;2023-04-25T12:06:51;5.80;;;4.30;;
62056;SDS011;48016;50.284;18.860;2023-04-25T12:09:20;7.30;;;4.30;;
62056;SDS011;48016;50.284;18.860;2023-04-25T12:11:54;6.10;;;4.60;;
62056;SDS011;48016;50.284;18.860;2023-04-25T12:14:23;8.80;;;5.00;;
62056;SDS011;48016;50.284;18.860;2023-04-25T12:16:55;7.60;;;4.90;;
62056;SDS011;48016;50.284;18.860;2023-04-25T12:19:26;6.90;;;4.70;;
62056;SDS011;48016;50.284;18.860;2023-04-25T12:22:00;6.80;;;4.70;;
62056;SDS011;48016;50.284;18.860;2023-04-25T12:24:29;6.10;;;5.10;;
62056;SDS011;48016;50.284;18.860;2023-04-25T12:27:03;5.60;;;4.50;;
62056;SDS011;48016;50.284;18.860;2023-04-25T12:29:32;7.00;;;5.20;;
62056;SDS011;48016;50.284;18.860;2023-04-25T12:32:00;7.10;;;5.00;;
62056;SDS011;48016;50.284;18.860;2023-04-25T12:34:30;5.80;;;4.70;;
62056;SDS011;48016;50.284;18.860;2023-04-25T12:36:58;6.90;;;5.00;;
62056;SDS011;48016;50.284;18.860;2023-04-25T12:39:25;6.70;;;4.50;;
62056;SDS011;48016;50.284;18.860;2023-04-25T12:41:52;5.20;;;4.30;;
62056;SDS011;48016;50.284;18.860;2023-04-25T12:44:20;6.20;;;4.30;;
62056;SDS011;48016;50.284;18.860;2023-04-25T12:46:47;5.30;;;4.40;;
62056;SDS011;48016;50.284;18.860;2023-04-25T12:49:14;5.80;;;4.00;;
62056;SDS011;48016;50.284;18.860;2023-04-25T12:51:41;6.30;;;4.50;;
62056;SDS011;48016;50.284;18.860;2023-04-25T12:54:08;6.70;;;4.80;;
62056;SDS011;48016;50.284;18.860;2023-04-25T12:56:35;8.60;;;4.90;;
62056;SDS011;48016;50.284;18.860;2023-04-25T13:01:31;8.00;;;4.20;;
62056;SDS011;48016;50.284;18.860;2023-04-25T13:03:59;7.30;;;4.80;;
62056;SDS011;48016;50.284;18.860;2023-04-25T13:06:25;6.60;;;4.60;;
62056;SDS011;48016;50.284;18.860;2023-04-25T13:08:52;7.20;;;4.90;;
62056;SDS011;48016;50.284;18.860;2023-04-25T13:11:19;6.90;;;4.60;;
62056;SDS011;48016;50.284;18.860;2023-04-25T13:13:46;6.50;;;4.50;;
62056;SDS011;48016;50.284;18.860;2023-04-25T13:16:12;6.40;;;5.00;;
62056;SDS011;48016;50.284;18.860;2023-04-25T13:18:42;6.80;;;5.10;;
62056;SDS011;48016;50.284;18.860;2023-04-25T13:21:09;5.70;;;4.70;;
62056;SDS011;48016;50.284;18.860;2023-04-25T13:23:37;6.30;;;4.90;;
62056;SDS011;48016;50.284;18.860;2023-04-25T13:26:04;8.60;;;5.60;;
62056;SDS011;48016;50.284;18.860;2023-04-25T13:28:31;6.30;;;4.80;;
62056;SDS011;48016;50.284;18.860;2023-04-25T13:30:58;9.50;;;4.50;;
62056;SDS011;48016;50.284;18.860;2023-04-25T13:33:25;4.90;;;4.20;;
62056;SDS011;48016;50.284;18.860;2023-04-25T13:35:52;6.00;;;4.50;;
62056;SDS011;48016;50.284;18.860;2023-04-25T13:38:23;6.40;;;4.70;;
62056;SDS011;48016;50.284;18.860;2023-04-25T13:40:51;7.80;;;4.70;;
62056;SDS011;48016;50.284;18.860;2023-04-25T13:43:19;6.10;;;4.50;;
62056;SDS011;48016;50.284;18.860;2023-04-25T13:45:48;7.60;;;5.20;;
62056;SDS011;48016;50.284;18.860;2023-04-25T13:48:15;6.20;;;4.70;;
62056;SDS011;48016;50.284;18.860;2023-04-25T13:50:42;8.10;;;5.90;;
62056;SDS011;48016;50.284;18.860;2023-04-25T13:53:09;7.20;;;5.10;;
62056;SDS011;48016;50.284;18.860;2023-04-25T13:55:36;6.00;;;4.50;;
62056;SDS011;48016;50.284;18.860;2023-04-25T14:00:36;7.00;;;4.80;;
62056;SDS011;48016;50.284;18.860;2023-04-25T14:03:05;6.90;;;5.00;;
62056;SDS011;48016;50.284;18.860;2023-04-25T14:05:33;6.50;;;4.50;;
62056;SDS011;48016;50.284;18.860;2023-04-25T14:08:04;6.70;;;4.60;;
62056;SDS011;48016;50.284;18.860;2023-04-25T14:10:32;7.10;;;5.00;;
62056;SDS011;48016;50.284;18.860;2023-04-25T14:13:00;8.60;;;4.70;;
62056;SDS011;48016;50.284;18.860;2023-04-25T14:15:27;5.90;;;5.10;;
62056;SDS011;48016;50.284;18.860;2023-04-25T14:17:54;6.70;;;5.20;;
62056;SDS011;48016;50.284;18.860;2023-04-25T14:20:20;8.00;;;5.40;;
62056;SDS011;48016;50.284;18.860;2023-04-25T14:22:50;7.00;;;4.90;;
62056;SDS011;48016;50.284;18.860;2023-04-25T14:25:16;6.20;;;4.90;;
62056;SDS011;48016;50.284;18.860;2023-04-25T14:27:43;5.50;;;4.20;;
62056;SDS011;48016;50.284;18.860;2023-04-25T14:30:13;5.30;;;4.40;;
62056;SDS011;48016;50.284;18.860;2023-04-25T14:32:40;6.30;;;4.60;;
62056;SDS011;48016;50.284;18.860;2023-04-25T14:35:07;7.10;;;4.80;;
62056;SDS011;48016;50.284;18.860;2023-04-25T14:37:34;8.50;;;4.50;;
62056;SDS011;48016;50.284;18.860;2023-04-25T14:40:00;5.90;;;4.30;;
62056;SDS011;48016;50.284;18.860;2023-04-25T14:42:27;6.20;;;4.40;;
62056;SDS011;48016;50.284;18.860;2023-04-25T14:44:54;8.30;;;4.50;;
62056;SDS011;48016;50.284;18.860;2023-04-25T14:47:20;7.70;;;5.10;;
62056;SDS011;48016;50.284;18.860;2023-04-25T14:49:47;5.80;;;4.50;;
62056;SDS011;48016;50.284;18.860;2023-04-25T14:52:20;5.70;;;4.30;;
62056;SDS011;48016;50.284;18.860;2023-04-25T14:54:47;7.40;;;4.10;;
62056;SDS011;48016;50.284;18.860;2023-04-25T14:57:14;7.60;;;4.30;;
62056;SDS011;48016;50.284;18.860;2023-04-25T14:59:41;6.50;;;4.80;;
62056;SDS011;48016;50.284;18.860;2023-04-25T15:02:08;4.70;;;3.90;;
62056;SDS011;48016;50.284;18.860;2023-04-25T15:04:34;7.20;;;4.10;;
62056;SDS011;48016;50.284;18.860;2023-04-25T15:07:01;4.60;;;3.60;;
62056;SDS011;48016;50.284;18.860;2023-04-25T15:09:28;6.90;;;4.30;;
62056;SDS011;48016;50.284;18.860;2023-04-25T15:11:54;6.60;;;4.30;;
62056;SDS011;48016;50.284;18.860;2023-04-25T15:14:21;6.70;;;4.50;;
62056;SDS011;48016;50.284;18.860;2023-04-25T15:16:48;6.10;;;4.40;;
62056;SDS011;48016;50.284;18.860;2023-04-25T15:19:15;8.10;;;4.40;;
62056;SDS011;48016;50.284;18.860;2023-04-25T15:21:42;6.40;;;4.20;;
62056;SDS011;48016;50.284;18.860;2023-04-25T15:24:08;9.00;;;5.00;;
62056;SDS011;48016;50.284;18.860;2023-04-25T15:26:36;7.70;;;4.90;;
62056;SDS011;48016;50.284;18.860;2023-04-25T15:29:02;7.40;;;4.90;;
62056;SDS011;48016;50.284;18.860;2023-04-25T15:31:29;6.60;;;4.90;;
62056;SDS011;48016;50.284;18.860;2023-04-25T15:33:56;8.20;;;5.00;;
62056;SDS011;48016;50.284;18.860;2023-04-25T15:36:23;6.10;;;4.50;;
62056;SDS011;48016;50.284;18.860;2023-04-25T15:38:49;8.20;;;4.20;;